Time;durP1;ratioP1;P1;durP2;ratioP2;P2;SDS_P1;SDS_P2;PMS_P1;PMS_P2;Temp;Humidity;BMP_temperature;BMP_pressure;BME280_temperature;BME280_humidity;BME280_pressure;Samples;Min_cycle;Max_cycle;Signal;HPM_P1;HPM_P2
2022/11/02 00:00:38;;;;;;;0.80;0.70;;;;;;;;;;5072228;28;20916;-77
2022/11/02 00:03:04;;;;;;;0.73;0.70;;;;;;;;;;5067587;28;20461;-77
2022/11/02 00:05:32;;;;;;;0.70;0.70;;;;;;;;;;5066370;28;20482;-77
2022/11/02 00:07:58;;;;;;;0.70;0.67;;;;;;;;;;5085756;28;20943;-75
2022/11/02 00:10:25;;;;;;;0.70;0.70;;;;;;;;;;5063996;28;20504;-75
2022/11/02 00:12:52;;;;;;;0.70;0.60;;;;;;;;;;5046087;28;20466;-80
2022/11/02 00:15:22;;;;;;;0.70;0.60;;;;;;;;;;5070962;28;20461;-78
2022/11/02 00:17:51;;;;;;;0.70;0.70;;;;;;;;;;5058681;28;20446;-78
2022/11/02 00:20:19;;;;;;;0.70;0.70;;;;;;;;;;5066387;28;20443;-76
2022/11/02 00:22:49;;;;;;;0.70;0.60;;;;;;;;;;5068329;28;20497;-77
2022/11/02 00:25:18;;;;;;;0.70;0.60;;;;;;;;;;5091220;28;20435;-75
2022/11/02 00:27:45;;;;;;;0.70;0.70;;;;;;;;;;5084213;28;20425;-76
2022/11/02 00:30:13;;;;;;;0.80;0.80;;;;;;;;;;5064016;28;20463;-76
2022/11/02 00:32:42;;;;;;;0.70;0.70;;;;;;;;;;5065008;28;20448;-78
2022/11/02 00:35:10;;;;;;;0.80;0.70;;;;;;;;;;5052268;28;20475;-78
2022/11/02 00:37:36;;;;;;;0.73;0.70;;;;;;;;;;5067821;28;20449;-74
2022/11/02 00:40:04;;;;;;;0.80;0.80;;;;;;;;;;5044793;28;20452;-75
2022/11/02 00:42:31;;;;;;;0.70;0.70;;;;;;;;;;5043371;28;20487;-77
2022/11/02 00:44:58;;;;;;;0.70;0.70;;;;;;;;;;5062162;28;20502;-76
2022/11/02 00:47:25;;;;;;;0.70;0.70;;;;;;;;;;5040436;28;20456;-77
2022/11/02 00:49:54;;;;;;;0.70;0.70;;;;;;;;;;5057256;28;20452;-77
2022/11/02 00:52:21;;;;;;;0.70;0.70;;;;;;;;;;5064824;28;20480;-76
2022/11/02 00:54:50;;;;;;;0.70;0.60;;;;;;;;;;5062970;28;20827;-77
2022/11/02 00:57:18;;;;;;;0.70;0.60;;;;;;;;;;5062830;28;20482;-77
2022/11/02 00:59:44;;;;;;;0.70;0.70;;;;;;;;;;5065099;28;20540;-77
2022/11/02 01:02:14;;;;;;;0.80;0.70;;;;;;;;;;5067796;28;20452;-77
2022/11/02 01:04:42;;;;;;;0.70;0.60;;;;;;;;;;5050056;28;20554;-76
2022/11/02 01:07:11;;;;;;;0.70;0.70;;;;;;;;;;5060400;28;20566;-77
2022/11/02 01:09:38;;;;;;;0.70;0.60;;;;;;;;;;5055268;28;20447;-77
2022/11/02 01:12:06;;;;;;;0.70;0.60;;;;;;;;;;5056206;28;20514;-78
2022/11/02 01:14:33;;;;;;;0.70;0.70;;;;;;;;;;5074404;28;20839;-78
2022/11/02 01:17:01;;;;;;;0.70;0.70;;;;;;;;;;5058849;28;20460;-75
2022/11/02 01:19:29;;;;;;;0.70;0.60;;;;;;;;;;5047359;28;20434;-77
2022/11/02 01:21:56;;;;;;;0.70;0.70;;;;;;;;;;5069889;28;20498;-78
2022/11/02 01:24:24;;;;;;;0.80;0.70;;;;;;;;;;5062777;28;20438;-77
2022/11/02 01:26:51;;;;;;;0.70;0.70;;;;;;;;;;5063696;28;20425;-78
2022/11/02 01:29:18;;;;;;;0.70;0.60;;;;;;;;;;5048820;28;20450;-78
2022/11/02 01:31:45;;;;;;;0.70;0.70;;;;;;;;;;5068821;28;20451;-77
2022/11/02 01:34:12;;;;;;;0.70;0.70;;;;;;;;;;5070441;28;20468;-78
2022/11/02 01:36:39;;;;;;;0.70;0.60;;;;;;;;;;5050108;28;20568;-78
2022/11/02 01:39:06;;;;;;;0.70;0.70;;;;;;;;;;5070302;28;20946;-76
2022/11/02 01:41:34;;;;;;;0.70;0.60;;;;;;;;;;5071905;28;20440;-78
2022/11/02 01:44:02;;;;;;;0.70;0.60;;;;;;;;;;5053108;28;20509;-77
2022/11/02 01:46:33;;;;;;;0.70;0.70;;;;;;;;;;5042889;28;20447;-77
2022/11/02 01:49:02;;;;;;;0.70;0.60;;;;;;;;;;5061166;28;20441;-77
2022/11/02 01:51:30;;;;;;;0.70;0.60;;;;;;;;;;5045734;28;20521;-75
2022/11/02 01:53:59;;;;;;;1.10;1.00;;;;;;;;;;5064753;28;20432;-75
2022/11/02 01:56:28;;;;;;;0.80;0.80;;;;;;;;;;5064597;28;20476;-77
2022/11/02 01:58:59;;;;;;;0.77;0.77;;;;;;;;;;5063622;28;20542;-76
2022/11/02 02:01:26;;;;;;;0.70;0.70;;;;;;;;;;5043036;28;20443;-76
2022/11/02 02:03:55;;;;;;;0.70;0.70;;;;;;;;;;5061767;28;20462;-77
2022/11/02 02:06:25;;;;;;;0.70;0.60;;;;;;;;;;5035440;28;20506;-77
2022/11/02 02:08:53;;;;;;;0.70;0.60;;;;;;;;;;5040326;28;20538;-77
2022/11/02 02:11:29;;;;;;;0.70;0.67;;;;;;;;;;5068080;28;20524;-78
2022/11/02 02:14:03;;;;;;;0.70;0.70;;;;;;;;;;5067548;28;20855;-74
2022/11/02 02:16:46;;;;;;;0.70;0.70;;;;;;;;;;5049536;28;20469;-76
2022/11/02 02:19:24;;;;;;;0.80;0.80;;;;;;;;;;5065843;28;21024;-77
2022/11/02 02:22:05;;;;;;;0.80;0.80;;;;;;;;;;5062606;28;20565;-77
2022/11/02 02:24:43;;;;;;;0.70;0.70;;;;;;;;;;5051767;28;20989;-77
2022/11/02 02:27:18;;;;;;;0.70;0.60;;;;;;;;;;5042807;28;20452;-77
2022/11/02 02:29:58;;;;;;;0.73;0.70;;;;;;;;;;5055577;28;20475;-76
2022/11/02 02:32:33;;;;;;;0.70;0.60;;;;;;;;;;5042296;28;20465;-79
2022/11/02 02:35:10;;;;;;;0.70;0.60;;;;;;;;;;5059249;28;20484;-76
2022/11/02 02:37:45;;;;;;;0.70;0.60;;;;;;;;;;5061428;28;20927;-76
2022/11/02 02:40:19;;;;;;;0.80;0.80;;;;;;;;;;5069377;28;20544;-77
2022/11/02 02:42:51;;;;;;;0.70;0.60;;;;;;;;;;5070944;28;20465;-77
2022/11/02 02:45:29;;;;;;;0.80;0.80;;;;;;;;;;5056909;28;20504;-77
2022/11/02 02:48:01;;;;;;;0.70;0.60;;;;;;;;;;5053108;28;20456;-77
2022/11/02 02:50:35;;;;;;;0.70;0.70;;;;;;;;;;5069053;28;20473;-76
2022/11/02 02:53:06;;;;;;;0.70;0.60;;;;;;;;;;5078482;28;20466;-76
2022/11/02 02:55:42;;;;;;;0.80;0.80;;;;;;;;;;5059328;28;20488;-76
2022/11/02 02:58:13;;;;;;;0.70;0.67;;;;;;;;;;5059045;28;20446;-74
2022/11/02 03:00:51;;;;;;;0.70;0.60;;;;;;;;;;5037115;28;20452;-78
2022/11/02 03:03:30;;;;;;;0.70;0.70;;;;;;;;;;5042262;28;20443;-78
2022/11/02 03:06:13;;;;;;;0.70;0.70;;;;;;;;;;5066648;28;20480;-75
2022/11/02 03:08:51;;;;;;;1.00;1.00;;;;;;;;;;5050943;28;20509;-76
2022/11/02 03:11:25;;;;;;;0.70;0.60;;;;;;;;;;5064105;28;20469;-77
2022/11/02 03:14:05;;;;;;;0.70;0.70;;;;;;;;;;5067603;28;20966;-75
2022/11/02 03:16:51;;;;;;;0.80;0.80;;;;;;;;;;5058071;28;20549;-74
2022/11/02 03:19:23;;;;;;;0.70;0.60;;;;;;;;;;5047409;28;20861;-76
2022/11/02 03:22:00;;;;;;;0.70;0.70;;;;;;;;;;5072547;28;20499;-77
2022/11/02 03:24:35;;;;;;;1.07;0.97;;;;;;;;;;5040697;28;20455;-78
2022/11/02 03:27:08;;;;;;;0.70;0.60;;;;;;;;;;5048283;28;20459;-74
2022/11/02 03:29:42;;;;;;;0.70;0.70;;;;;;;;;;5077325;28;20468;-77
2022/11/02 03:32:19;;;;;;;0.83;0.80;;;;;;;;;;5075172;28;20460;-77
2022/11/02 03:34:55;;;;;;;0.70;0.70;;;;;;;;;;5073234;28;20490;-77
2022/11/02 03:37:29;;;;;;;0.70;0.70;;;;;;;;;;5065171;28;20475;-77
2022/11/02 03:40:05;;;;;;;0.70;0.70;;;;;;;;;;5036978;28;20455;-76
2022/11/02 03:42:35;;;;;;;0.70;0.70;;;;;;;;;;5045851;28;20439;-76
2022/11/02 03:45:06;;;;;;;0.70;0.70;;;;;;;;;;5069032;28;20455;-76
2022/11/02 03:47:38;;;;;;;0.70;0.70;;;;;;;;;;5052549;28;20530;-76
2022/11/02 03:50:10;;;;;;;0.70;0.70;;;;;;;;;;5072888;28;20454;-75
2022/11/02 03:52:40;;;;;;;0.70;0.60;;;;;;;;;;5070617;28;20454;-78
2022/11/02 03:55:11;;;;;;;0.70;0.70;;;;;;;;;;5043809;28;20989;-76
2022/11/02 03:57:44;;;;;;;1.37;1.27;;;;;;;;;;5076528;28;20486;-77
2022/11/02 04:00:16;;;;;;;0.70;0.70;;;;;;;;;;5038014;28;20944;-77
2022/11/02 04:02:55;;;;;;;0.70;0.60;;;;;;;;;;5056591;28;20466;-77
2022/11/02 04:05:26;;;;;;;0.87;0.87;;;;;;;;;;5069941;28;20567;-78
2022/11/02 04:14:36;;;;;;;0.70;0.63;;;;;;;;;;5063627;28;20475;-77
2022/11/02 04:16:12;;;;;;;0.70;0.70;;;;;;;;;;5046197;28;20569;-77
2022/11/02 04:21:29;;;;;;;0.70;0.70;;;;;;;;;;5063635;28;20465;-76
2022/11/02 04:26:47;;;;;;;0.80;0.80;;;;;;;;;;5062065;28;20865;-75
2022/11/02 04:29:16;;;;;;;0.70;0.60;;;;;;;;;;5040162;28;20494;-75
2022/11/02 04:31:45;;;;;;;0.80;0.80;;;;;;;;;;5069995;28;20451;-76
2022/11/02 04:34:15;;;;;;;0.70;0.70;;;;;;;;;;5065027;28;20439;-77
2022/11/02 04:36:41;;;;;;;0.70;0.70;;;;;;;;;;5066467;28;20478;-77
2022/11/02 04:39:08;;;;;;;0.80;0.80;;;;;;;;;;5064553;28;20450;-77
2022/11/02 04:41:41;;;;;;;0.70;0.70;;;;;;;;;;5072103;28;20534;-77
2022/11/02 04:44:27;;;;;;;0.70;0.70;;;;;;;;;;5084151;28;20438;-75
2022/11/02 04:47:03;;;;;;;0.70;0.70;;;;;;;;;;5054761;28;20461;-76
2022/11/02 04:49:33;;;;;;;0.70;0.60;;;;;;;;;;5058455;28;20544;-77
2022/11/02 04:52:02;;;;;;;0.70;0.60;;;;;;;;;;5041972;28;20870;-77
2022/11/02 04:54:32;;;;;;;0.80;0.70;;;;;;;;;;5071923;28;20487;-76
2022/11/02 04:57:01;;;;;;;0.70;0.60;;;;;;;;;;5036638;28;20471;-77
2022/11/02 04:59:29;;;;;;;0.73;0.70;;;;;;;;;;5047007;28;20463;-78
2022/11/02 05:01:57;;;;;;;0.70;0.70;;;;;;;;;;5049477;28;20455;-77
2022/11/02 05:04:24;;;;;;;0.70;0.70;;;;;;;;;;5064805;28;20461;-77
2022/11/02 05:06:53;;;;;;;0.70;0.70;;;;;;;;;;5044250;28;20526;-77
2022/11/02 05:09:27;;;;;;;0.70;0.70;;;;;;;;;;5063432;28;20435;-78
2022/11/02 05:11:53;;;;;;;0.70;0.60;;;;;;;;;;5059563;28;20453;-76
2022/11/02 05:14:20;;;;;;;0.80;0.80;;;;;;;;;;5057111;28;20452;-77
2022/11/02 05:16:47;;;;;;;0.80;0.80;;;;;;;;;;5056253;28;20471;-77
2022/11/02 05:19:14;;;;;;;0.70;0.70;;;;;;;;;;5074133;28;20513;-77
2022/11/02 05:21:42;;;;;;;0.80;0.70;;;;;;;;;;5055545;28;20469;-77
2022/11/02 05:24:12;;;;;;;0.70;0.70;;;;;;;;;;5049495;28;20761;-76
2022/11/02 05:26:39;;;;;;;0.70;0.63;;;;;;;;;;5067967;28;20448;-77
2022/11/02 05:29:07;;;;;;;0.70;0.70;;;;;;;;;;5050438;28;20470;-77
2022/11/02 05:31:34;;;;;;;1.17;1.07;;;;;;;;;;5066199;28;20475;-77
2022/11/02 05:34:01;;;;;;;0.70;0.60;;;;;;;;;;5059580;28;20446;-77
2022/11/02 05:36:28;;;;;;;1.17;1.07;;;;;;;;;;5045862;28;20484;-78
2022/11/02 05:38:56;;;;;;;0.70;0.63;;;;;;;;;;5059890;28;20969;-77
2022/11/02 05:41:24;;;;;;;0.70;0.60;;;;;;;;;;5050953;28;20508;-82
2022/11/02 05:43:54;;;;;;;0.70;0.70;;;;;;;;;;5039536;28;20443;-77
2022/11/02 05:46:22;;;;;;;0.70;0.70;;;;;;;;;;5046529;28;20508;-79
2022/11/02 05:48:49;;;;;;;0.70;0.70;;;;;;;;;;5071778;28;20530;-78
2022/11/02 05:51:15;;;;;;;0.80;0.80;;;;;;;;;;5067082;28;20471;-78
2022/11/02 05:53:43;;;;;;;0.70;0.70;;;;;;;;;;5035997;28;20471;-80
2022/11/02 05:56:10;;;;;;;0.70;0.70;;;;;;;;;;5082547;28;20433;-77
2022/11/02 05:58:38;;;;;;;0.80;0.80;;;;;;;;;;5066400;28;21046;-79
2022/11/02 06:01:06;;;;;;;0.70;0.67;;;;;;;;;;5046078;28;20462;-78
2022/11/02 06:03:33;;;;;;;1.33;1.17;;;;;;;;;;5047734;28;20446;-78
2022/11/02 06:06:02;;;;;;;0.70;0.70;;;;;;;;;;5040495;28;20481;-76
2022/11/02 06:08:30;;;;;;;0.70;0.60;;;;;;;;;;5082521;28;20425;-77
2022/11/02 06:10:56;;;;;;;0.70;0.70;;;;;;;;;;5073842;28;20426;-80
2022/11/02 06:13:23;;;;;;;0.80;0.80;;;;;;;;;;5085627;28;20805;-77
2022/11/02 06:16:01;;;;;;;0.80;0.70;;;;;;;;;;5068143;28;20454;-79
2022/11/02 06:18:32;;;;;;;0.80;0.80;;;;;;;;;;5057426;28;20553;-78
2022/11/02 06:20:59;;;;;;;0.80;0.80;;;;;;;;;;5078537;28;20468;-78
2022/11/02 06:23:26;;;;;;;0.70;0.60;;;;;;;;;;5065010;28;20961;-77
2022/11/02 06:25:53;;;;;;;0.80;0.70;;;;;;;;;;5082996;28;20544;-80
2022/11/02 06:28:20;;;;;;;0.80;0.70;;;;;;;;;;5081276;28;20428;-78
2022/11/02 06:30:49;;;;;;;0.70;0.60;;;;;;;;;;5068619;28;20499;-78
2022/11/02 06:33:17;;;;;;;0.80;0.73;;;;;;;;;;5060576;28;20499;-79
2022/11/02 06:35:45;;;;;;;0.70;0.70;;;;;;;;;;5074006;28;20460;-80
2022/11/02 06:38:11;;;;;;;0.80;0.80;;;;;;;;;;5052219;28;20505;-76
2022/11/02 06:40:38;;;;;;;0.70;0.70;;;;;;;;;;5055551;28;20442;-78
2022/11/02 06:43:05;;;;;;;0.70;0.60;;;;;;;;;;5087808;28;20934;-80
2022/11/02 06:45:48;;;;;;;0.70;0.70;;;;;;;;;;5085431;28;20527;-80
2022/11/02 06:48:16;;;;;;;0.70;0.70;;;;;;;;;;5083973;28;20450;-78
2022/11/02 06:50:43;;;;;;;0.77;0.77;;;;;;;;;;5080624;28;20449;-82
2022/11/02 06:53:10;;;;;;;0.70;0.60;;;;;;;;;;5064765;28;20796;-79
2022/11/02 06:55:37;;;;;;;0.70;0.70;;;;;;;;;;5061724;28;20544;-79
2022/11/02 06:58:04;;;;;;;0.70;0.67;;;;;;;;;;5064811;28;20988;-78
2022/11/02 07:00:32;;;;;;;0.70;0.60;;;;;;;;;;5077967;28;20501;-77
2022/11/02 07:03:02;;;;;;;0.70;0.60;;;;;;;;;;5074773;28;21126;-79
2022/11/02 07:05:35;;;;;;;0.80;0.80;;;;;;;;;;5062805;28;20456;-84
2022/11/02 07:08:03;;;;;;;0.70;0.70;;;;;;;;;;5068082;28;20546;-82
2022/11/02 07:10:34;;;;;;;0.70;0.70;;;;;;;;;;5048057;28;20453;-82
2022/11/02 07:13:01;;;;;;;0.70;0.70;;;;;;;;;;5064573;28;20512;-82
2022/11/02 07:15:30;;;;;;;0.80;0.80;;;;;;;;;;5057291;28;20448;-83
2022/11/02 07:18:01;;;;;;;0.70;0.63;;;;;;;;;;5084577;28;20558;-82
2022/11/02 07:20:32;;;;;;;0.70;0.67;;;;;;;;;;5068398;28;20526;-83
2022/11/02 07:23:02;;;;;;;0.80;0.80;;;;;;;;;;5040851;28;20456;-80
2022/11/02 07:25:32;;;;;;;0.70;0.70;;;;;;;;;;5067983;28;20533;-83
2022/11/02 07:28:00;;;;;;;0.70;0.70;;;;;;;;;;5054789;28;20860;-85
2022/11/02 07:30:27;;;;;;;0.70;0.60;;;;;;;;;;5088515;28;20426;-79
2022/11/02 07:32:55;;;;;;;0.70;0.60;;;;;;;;;;5077831;28;20967;-82
2022/11/02 07:35:22;;;;;;;0.80;0.70;;;;;;;;;;5057818;28;20573;-84
2022/11/02 07:37:56;;;;;;;0.70;0.70;;;;;;;;;;5064005;28;20477;-83
2022/11/02 07:40:25;;;;;;;0.70;0.70;;;;;;;;;;5051807;28;20467;-82
2022/11/02 07:42:53;;;;;;;0.70;0.60;;;;;;;;;;5068560;28;20533;-84
2022/11/02 07:45:29;;;;;;;0.70;0.70;;;;;;;;;;5070957;28;20478;-83
2022/11/02 07:47:57;;;;;;;0.80;0.80;;;;;;;;;;5069123;28;20452;-84
2022/11/02 07:50:25;;;;;;;0.70;0.70;;;;;;;;;;5066994;28;20481;-81
2022/11/02 07:52:53;;;;;;;0.77;0.77;;;;;;;;;;5074922;28;20450;-84
2022/11/02 07:55:22;;;;;;;0.70;0.70;;;;;;;;;;5065441;28;20456;-81
2022/11/02 07:57:57;;;;;;;0.70;0.60;;;;;;;;;;5060976;28;20471;-81
2022/11/02 08:00:27;;;;;;;0.70;0.70;;;;;;;;;;5054489;28;20545;-84
2022/11/02 08:02:55;;;;;;;0.70;0.70;;;;;;;;;;5055043;28;20527;-85
2022/11/02 08:05:23;;;;;;;0.70;0.70;;;;;;;;;;5068780;28;20478;-86
2022/11/02 08:07:55;;;;;;;0.70;0.60;;;;;;;;;;5064804;28;20549;-82
2022/11/02 08:10:21;;;;;;;0.73;0.70;;;;;;;;;;5070482;28;20467;-83
2022/11/02 08:12:50;;;;;;;2.40;1.10;;;;;;;;;;5087202;28;20443;-81
2022/11/02 08:15:19;;;;;;;0.70;0.60;;;;;;;;;;5062516;28;20951;-83
2022/11/02 08:17:45;;;;;;;0.80;0.77;;;;;;;;;;5074119;28;20466;-81
2022/11/02 08:20:13;;;;;;;0.70;0.70;;;;;;;;;;5054148;28;20451;-85
2022/11/02 08:22:41;;;;;;;0.80;0.70;;;;;;;;;;5071798;28;20465;-84
2022/11/02 08:25:10;;;;;;;0.70;0.70;;;;;;;;;;5072365;28;20872;-83
2022/11/02 08:27:37;;;;;;;0.70;0.70;;;;;;;;;;5086801;28;20923;-85
2022/11/02 08:30:06;;;;;;;0.70;0.70;;;;;;;;;;5069514;28;20448;-82
2022/11/02 08:32:40;;;;;;;0.80;0.80;;;;;;;;;;5050944;28;20455;-81
2022/11/02 08:35:08;;;;;;;0.70;0.60;;;;;;;;;;5066417;28;20554;-79
2022/11/02 08:37:35;;;;;;;0.70;0.70;;;;;;;;;;5071319;28;20495;-84
2022/11/02 08:40:04;;;;;;;0.70;0.70;;;;;;;;;;5063027;28;20455;-85
2022/11/02 08:42:32;;;;;;;0.70;0.70;;;;;;;;;;5068484;28;20443;-78
2022/11/02 08:44:59;;;;;;;0.70;0.70;;;;;;;;;;5055673;28;20456;-84
2022/11/02 08:47:28;;;;;;;0.80;0.80;;;;;;;;;;5065987;28;20439;-81
2022/11/02 08:49:58;;;;;;;0.80;0.80;;;;;;;;;;5052252;28;20462;-80
2022/11/02 08:52:25;;;;;;;0.80;0.80;;;;;;;;;;5070021;28;20482;-79
2022/11/02 08:54:56;;;;;;;0.80;0.70;;;;;;;;;;5058242;28;20541;-83
2022/11/02 08:57:27;;;;;;;0.80;0.70;;;;;;;;;;5038951;28;20471;-78
2022/11/02 08:59:54;;;;;;;1.10;1.00;;;;;;;;;;5035826;28;20446;-78
2022/11/02 09:02:23;;;;;;;0.80;0.80;;;;;;;;;;5068142;28;20813;-84
2022/11/02 09:04:50;;;;;;;0.70;0.70;;;;;;;;;;5053908;28;20544;-84
2022/11/02 09:07:19;;;;;;;0.70;0.60;;;;;;;;;;5047545;28;20990;-83
2022/11/02 09:09:46;;;;;;;0.80;0.70;;;;;;;;;;5067939;28;20481;-81
2022/11/02 09:12:14;;;;;;;0.80;0.80;;;;;;;;;;5064177;28;20484;-80
2022/11/02 09:14:40;;;;;;;0.80;0.70;;;;;;;;;;5044246;28;20874;-79
2022/11/02 09:17:07;;;;;;;0.70;0.60;;;;;;;;;;5067426;28;20454;-83
2022/11/02 09:19:34;;;;;;;0.70;0.70;;;;;;;;;;5060713;28;20447;-82
2022/11/02 09:22:01;;;;;;;0.70;0.70;;;;;;;;;;5061252;28;20511;-76
2022/11/02 09:24:33;;;;;;;0.80;0.70;;;;;;;;;;5079741;28;20468;-78
2022/11/02 09:27:01;;;;;;;0.80;0.80;;;;;;;;;;5066470;28;20827;-78
2022/11/02 09:29:28;;;;;;;0.70;0.70;;;;;;;;;;5050184;28;20791;-75
2022/11/02 09:31:56;;;;;;;0.80;0.70;;;;;;;;;;5065547;28;20449;-78
2022/11/02 09:34:23;;;;;;;0.70;0.60;;;;;;;;;;5067983;28;20438;-76
2022/11/02 09:36:51;;;;;;;0.80;0.80;;;;;;;;;;5081606;28;20459;-77
2022/11/02 09:39:23;;;;;;;0.80;0.80;;;;;;;;;;5075804;28;20474;-75
2022/11/02 09:42:00;;;;;;;0.70;0.60;;;;;;;;;;5066454;28;20447;-77
2022/11/02 09:44:34;;;;;;;0.73;0.63;;;;;;;;;;5060327;28;20413;-78
2022/11/02 09:47:02;;;;;;;0.70;0.60;;;;;;;;;;5064256;28;20937;-75
2022/11/02 09:49:49;;;;;;;0.80;0.80;;;;;;;;;;5078579;28;20465;-75
2022/11/02 09:52:21;;;;;;;0.80;0.70;;;;;;;;;;5068961;28;20549;-76
2022/11/02 09:54:51;;;;;;;0.70;0.70;;;;;;;;;;5077416;28;20439;-77
2022/11/02 09:57:23;;;;;;;0.80;0.70;;;;;;;;;;5067333;28;20821;-82
2022/11/02 09:59:51;;;;;;;0.83;0.83;;;;;;;;;;5047259;28;20443;-76
2022/11/02 10:02:23;;;;;;;0.80;0.70;;;;;;;;;;5067184;28;20569;-76
2022/11/02 10:05:03;;;;;;;0.70;0.60;;;;;;;;;;5077604;28;20501;-77
2022/11/02 10:07:40;;;;;;;0.70;0.60;;;;;;;;;;5059898;28;20435;-76
2022/11/02 10:10:10;;;;;;;0.70;0.60;;;;;;;;;;5047782;28;20438;-77
2022/11/02 10:12:41;;;;;;;0.80;0.70;;;;;;;;;;5051640;28;20446;-78
2022/11/02 10:15:12;;;;;;;0.70;0.60;;;;;;;;;;5047405;28;21019;-78
2022/11/02 10:17:44;;;;;;;0.80;0.70;;;;;;;;;;5058689;28;20438;-80
2022/11/02 10:20:17;;;;;;;0.80;0.80;;;;;;;;;;5058121;28;20454;-80
2022/11/02 10:22:46;;;;;;;0.80;0.70;;;;;;;;;;5046173;28;20461;-79
2022/11/02 10:25:15;;;;;;;1.10;1.00;;;;;;;;;;5042633;28;20486;-80
2022/11/02 10:27:44;;;;;;;0.80;0.70;;;;;;;;;;5038559;28;20439;-77
2022/11/02 10:30:13;;;;;;;0.73;0.70;;;;;;;;;;5062581;28;20494;-81
2022/11/02 10:32:44;;;;;;;0.70;0.60;;;;;;;;;;5059560;28;20791;-79
2022/11/02 10:35:16;;;;;;;0.70;0.60;;;;;;;;;;5062557;28;20998;-80
2022/11/02 10:38:11;;;;;;;0.70;0.70;;;;;;;;;;5088214;28;20990;-80
2022/11/02 10:40:54;;;;;;;0.80;0.73;;;;;;;;;;5070933;28;20473;-80
2022/11/02 10:43:27;;;;;;;0.80;0.70;;;;;;;;;;5078090;28;20483;-79
2022/11/02 10:46:20;;;;;;;0.70;0.70;;;;;;;;;;5042570;28;20449;-79
2022/11/02 10:48:54;;;;;;;0.83;0.83;;;;;;;;;;5041458;28;20841;-85
2022/11/02 10:51:23;;;;;;;0.70;0.60;;;;;;;;;;5079548;28;20893;-82
2022/11/02 10:53:54;;;;;;;0.70;0.60;;;;;;;;;;5038635;28;20459;-80
2022/11/02 10:56:22;;;;;;;0.70;0.60;;;;;;;;;;5067006;28;20478;-76
2022/11/02 10:58:54;;;;;;;0.80;0.80;;;;;;;;;;5065029;28;20461;-77
2022/11/02 11:01:21;;;;;;;0.80;0.77;;;;;;;;;;5047262;28;20447;-78
2022/11/02 11:03:54;;;;;;;0.80;0.70;;;;;;;;;;5071848;28;21039;-80
2022/11/02 11:06:22;;;;;;;0.80;0.73;;;;;;;;;;5083110;28;20471;-78
2022/11/02 11:08:50;;;;;;;0.70;0.70;;;;;;;;;;5053255;28;20816;-79
2022/11/02 11:11:19;;;;;;;0.80;0.77;;;;;;;;;;5075799;28;20440;-79
2022/11/02 11:13:53;;;;;;;0.80;0.73;;;;;;;;;;5046520;28;20537;-79
2022/11/02 11:16:41;;;;;;;0.70;0.70;;;;;;;;;;5067327;28;20449;-79
2022/11/02 11:19:20;;;;;;;0.80;0.70;;;;;;;;;;5068079;28;20960;-79
2022/11/02 11:22:22;;;;;;;0.73;0.70;;;;;;;;;;5068977;28;20889;-84
2022/11/02 11:24:49;;;;;;;0.80;0.70;;;;;;;;;;5049792;28;20448;-75
2022/11/02 11:27:20;;;;;;;0.70;0.70;;;;;;;;;;5070314;28;20524;-78
2022/11/02 11:29:50;;;;;;;0.70;0.70;;;;;;;;;;5029227;28;20451;-76
2022/11/02 11:32:23;;;;;;;0.80;0.70;;;;;;;;;;5051862;28;20449;-80
2022/11/02 11:34:59;;;;;;;0.70;0.70;;;;;;;;;;5054161;28;20434;-78
2022/11/02 11:37:27;;;;;;;0.70;0.60;;;;;;;;;;5064909;28;20449;-79
2022/11/02 11:39:58;;;;;;;0.70;0.70;;;;;;;;;;5069016;28;20497;-79
2022/11/02 11:42:27;;;;;;;0.90;0.90;;;;;;;;;;5067908;28;20460;-80
2022/11/02 11:44:58;;;;;;;0.80;0.70;;;;;;;;;;5087859;28;20842;-76
2022/11/02 11:47:26;;;;;;;0.80;0.70;;;;;;;;;;5041186;28;20543;-83
2022/11/02 11:49:54;;;;;;;0.70;0.60;;;;;;;;;;5069819;28;20442;-82
2022/11/02 11:52:42;;;;;;;0.80;0.80;;;;;;;;;;5086396;28;20463;-79
2022/11/02 11:55:22;;;;;;;2.00;1.13;;;;;;;;;;5069222;28;20454;-79
2022/11/02 11:58:05;;;;;;;0.80;0.80;;;;;;;;;;5078717;28;20449;-78
2022/11/02 12:00:34;;;;;;;0.70;0.60;;;;;;;;;;5043370;28;20499;-77
2022/11/02 12:03:08;;;;;;;0.70;0.70;;;;;;;;;;5053894;28;20546;-78
2022/11/02 12:05:40;;;;;;;0.80;0.70;;;;;;;;;;5045514;28;20455;-78
2022/11/02 12:08:16;;;;;;;0.70;0.70;;;;;;;;;;5047172;28;20757;-77
2022/11/02 12:10:55;;;;;;;0.70;0.70;;;;;;;;;;5047592;28;20548;-79
2022/11/02 12:13:41;;;;;;;0.77;0.70;;;;;;;;;;5065513;28;20441;-76
2022/11/02 12:16:13;;;;;;;0.70;0.60;;;;;;;;;;5065968;28;20443;-81
2022/11/02 12:18:49;;;;;;;0.80;0.70;;;;;;;;;;5046217;28;20554;-75
2022/11/02 12:21:28;;;;;;;0.70;0.67;;;;;;;;;;5057224;28;20430;-78
2022/11/02 12:24:01;;;;;;;0.70;0.60;;;;;;;;;;5065190;28;21021;-76
2022/11/02 12:26:35;;;;;;;0.70;0.60;;;;;;;;;;5050640;28;20448;-77
2022/11/02 12:29:13;;;;;;;0.70;0.60;;;;;;;;;;5045899;28;20432;-79
2022/11/02 12:31:44;;;;;;;0.77;0.70;;;;;;;;;;5044270;28;20464;-78
2022/11/02 12:34:32;;;;;;;0.80;0.80;;;;;;;;;;5078386;28;20448;-79
2022/11/02 12:37:04;;;;;;;0.80;0.77;;;;;;;;;;5050646;28;20458;-79
2022/11/02 12:39:59;;;;;;;0.73;0.70;;;;;;;;;;5066509;28;20478;-77
2022/11/02 12:42:27;;;;;;;0.80;0.70;;;;;;;;;;5082205;28;20875;-76
2022/11/02 12:45:02;;;;;;;0.70;0.60;;;;;;;;;;5051812;28;20496;-78
2022/11/02 12:47:43;;;;;;;0.70;0.70;;;;;;;;;;5057149;28;20438;-78
2022/11/02 12:50:15;;;;;;;0.80;0.70;;;;;;;;;;5064857;28;20549;-77
2022/11/02 12:52:49;;;;;;;0.70;0.70;;;;;;;;;;5046043;28;20451;-82
2022/11/02 12:55:19;;;;;;;0.70;0.70;;;;;;;;;;5068054;28;20431;-80
2022/11/02 12:57:47;;;;;;;0.70;0.70;;;;;;;;;;5065176;28;20442;-80
2022/11/02 13:00:17;;;;;;;0.77;0.70;;;;;;;;;;5065213;28;20468;-80
2022/11/02 13:02:54;;;;;;;0.70;0.70;;;;;;;;;;5049456;28;20489;-84
2022/11/02 13:05:26;;;;;;;0.80;0.80;;;;;;;;;;5083921;28;21019;-80
2022/11/02 13:07:57;;;;;;;0.70;0.70;;;;;;;;;;5087281;28;20438;-81
2022/11/02 13:10:29;;;;;;;0.70;0.60;;;;;;;;;;5062419;28;20447;-85
2022/11/02 13:12:57;;;;;;;0.70;0.60;;;;;;;;;;5079249;28;20448;-82
2022/11/02 13:15:26;;;;;;;0.70;0.60;;;;;;;;;;5065662;28;20465;-81
2022/11/02 13:17:56;;;;;;;0.70;0.60;;;;;;;;;;5053718;28;20846;-83
2022/11/02 13:20:24;;;;;;;0.70;0.63;;;;;;;;;;5081073;28;20873;-78
2022/11/02 13:22:54;;;;;;;0.80;0.70;;;;;;;;;;5064130;28;20946;-80
2022/11/02 13:25:24;;;;;;;0.80;0.70;;;;;;;;;;5064919;28;20946;-77
2022/11/02 13:27:53;;;;;;;0.77;0.70;;;;;;;;;;5064193;28;20458;-80
2022/11/02 13:30:21;;;;;;;0.70;0.60;;;;;;;;;;5065737;28;20962;-80
2022/11/02 13:32:49;;;;;;;0.70;0.70;;;;;;;;;;5080572;28;20550;-77
2022/11/02 13:35:19;;;;;;;0.80;0.80;;;;;;;;;;5083262;28;20438;-83
2022/11/02 13:37:48;;;;;;;1.30;1.20;;;;;;;;;;5053553;28;20853;-78
2022/11/02 13:40:20;;;;;;;0.70;0.67;;;;;;;;;;5052065;28;20506;-79
2022/11/02 13:43:02;;;;;;;0.70;0.70;;;;;;;;;;5044035;28;20433;-80
2022/11/02 13:45:56;;;;;;;0.80;0.70;;;;;;;;;;5048583;28;20448;-82
2022/11/02 13:48:53;;;;;;;0.77;0.70;;;;;;;;;;5049327;28;20429;-82
2022/11/02 13:51:31;;;;;;;0.70;0.70;;;;;;;;;;5025471;28;20468;-80
2022/11/02 13:53:59;;;;;;;0.70;0.70;;;;;;;;;;5042713;28;20545;-88
2022/11/02 13:56:29;;;;;;;0.70;0.60;;;;;;;;;;5066571;28;20445;-82
2022/11/02 13:58:57;;;;;;;0.73;0.70;;;;;;;;;;5049300;28;20475;-81
2022/11/02 14:01:25;;;;;;;0.70;0.70;;;;;;;;;;5063883;28;20953;-80
2022/11/02 14:03:54;;;;;;;0.70;0.60;;;;;;;;;;5092809;28;20546;-82
2022/11/02 14:06:29;;;;;;;0.80;0.70;;;;;;;;;;5061998;28;20962;-81
2022/11/02 14:09:00;;;;;;;2.80;2.60;;;;;;;;;;5063184;28;20455;-82
2022/11/02 14:11:43;;;;;;;0.70;0.70;;;;;;;;;;5044903;28;20847;-85
2022/11/02 14:14:28;;;;;;;0.73;0.70;;;;;;;;;;5049442;28;20477;-87
2022/11/02 14:17:08;;;;;;;0.77;0.77;;;;;;;;;;5068980;28;20518;-83
2022/11/02 14:19:48;;;;;;;0.70;0.70;;;;;;;;;;5028706;28;21029;-83
2022/11/02 14:22:16;;;;;;;0.70;0.67;;;;;;;;;;5079615;28;20453;-84
2022/11/02 14:25:01;;;;;;;0.70;0.70;;;;;;;;;;5070378;28;20438;-81
2022/11/02 14:27:31;;;;;;;0.80;0.80;;;;;;;;;;5081201;28;20451;-81
2022/11/02 14:29:58;;;;;;;0.70;0.70;;;;;;;;;;5087678;28;20492;-81
2022/11/02 14:32:40;;;;;;;1.43;0.80;;;;;;;;;;5087079;28;20450;-83
2022/11/02 14:35:15;;;;;;;0.70;0.60;;;;;;;;;;5038990;28;20452;-81
2022/11/02 14:37:50;;;;;;;0.70;0.60;;;;;;;;;;5057659;28;20972;-83
2022/11/02 14:40:25;;;;;;;0.80;0.77;;;;;;;;;;5058162;28;20462;-75
2022/11/02 14:43:04;;;;;;;0.80;0.70;;;;;;;;;;5056785;28;20504;-82
2022/11/02 14:45:42;;;;;;;0.70;0.70;;;;;;;;;;5040844;28;20967;-81
2022/11/02 14:48:12;;;;;;;0.70;0.70;;;;;;;;;;5053288;28;20956;-81
2022/11/02 14:50:39;;;;;;;0.70;0.70;;;;;;;;;;5066759;28;20553;-81
2022/11/02 14:53:07;;;;;;;0.70;0.70;;;;;;;;;;5047003;28;20547;-84
2022/11/02 14:55:37;;;;;;;0.70;0.60;;;;;;;;;;5063451;28;20441;-82
2022/11/02 14:58:06;;;;;;;0.70;0.70;;;;;;;;;;5065325;28;20477;-83
2022/11/02 15:00:37;;;;;;;0.70;0.70;;;;;;;;;;5037792;28;20816;-82
2022/11/02 15:03:06;;;;;;;0.73;0.70;;;;;;;;;;5061533;28;20549;-81
2022/11/02 15:05:35;;;;;;;5.80;1.27;;;;;;;;;;5049278;28;20446;-80
2022/11/02 15:08:04;;;;;;;0.70;0.70;;;;;;;;;;5055888;28;20452;-79
2022/11/02 15:10:36;;;;;;;0.70;0.70;;;;;;;;;;5060617;28;20428;-79
2022/11/02 15:13:22;;;;;;;0.70;0.70;;;;;;;;;;5047286;28;20548;-79
2022/11/02 15:16:05;;;;;;;0.70;0.60;;;;;;;;;;5079997;28;20430;-80
2022/11/02 15:18:36;;;;;;;0.70;0.70;;;;;;;;;;5075768;28;20441;-80